Catàleg de serveis del Meteocat

Dades de l'estació automàtica Alcarràs

?
?
Resum diari 20:30 TU
Dades diàries de l'estació meteorològica
Temperatura mitjana 4.2 °C
Temperatura màxima 5.2 °C 15:59 TU
Temperatura mínima 1.4 °C 20:49 TU
Humitat relativa mitjana 98%
Precipitació acumulada 0.1 mm
Ratxa màxima del vent (2 m) 6.8 km/h - 252º 3:17 TU

El tram horari està expressat en Temps Universal (TU). Cal sumar una hora en horari d'hivern i dues en horari d'estiu per passar a l'hora oficial.

Alcarràs

Metadades estació meteorol´gica
Municipi Alcarràs
Comarca Segrià
Altitud 122 m
Data alta 31.07.2013
Estat actual Operativa
Dades de període
Període
TU
TM
°C
TX
°C
TN
°C
HRM
%
PPT
mm
VVM (2 m)
km/h
DVM (2 m)
graus
VVX (2 m)
km/h
00:00 - 00:30 4.6 4.6 4.5 100 0.1 0.4 257 3.2
00:30 - 01:00 4.5 4.6 4.5 100 0.0 0.4 263 2.9
01:00 - 01:30 4.4 4.5 4.3 100 0.0 0.7 265 5.0
01:30 - 02:00 4.3 4.3 4.2 100 0.0 1.4 244 6.1
02:00 - 02:30 4.3 4.3 4.2 100 0.0 1.1 247 4.0
02:30 - 03:00 4.3 4.3 4.3 100 0.0 2.2 234 6.1
03:00 - 03:30 4.2 4.3 4.2 100 0.0 2.2 229 6.8
03:30 - 04:00 4.1 4.1 4.0 100 0.0 1.1 223 5.8
04:00 - 04:30 4.1 4.1 4.1 100 0.0 1.4 227 4.0
04:30 - 05:00 4.1 4.1 4.0 100 0.0 1.4 225 4.7
05:00 - 05:30 4.0 4.0 4.0 100 0.0 0.4 228 4.7
05:30 - 06:00 4.0 4.0 3.9 100 0.0 0.4 205 3.6
06:00 - 06:30 3.9 4.0 3.9 100 0.0 0.7 284 5.0
06:30 - 07:00 3.8 3.9 3.8 100 0.0 0.7 307 4.0
07:00 - 07:30 3.7 3.8 3.7 100 0.0 1.1 315 4.3
07:30 - 08:00 3.7 3.7 3.7 100 0.0 1.8 14 4.7
08:00 - 08:30 3.8 3.8 3.7 100 0.0 1.1 23 3.6
08:30 - 09:00 4.0 4.1 3.8 100 0.0 0.4 166 3.2
09:00 - 09:30 4.1 4.3 4.0 100 0.0 1.1 187 4.7
09:30 - 10:00 4.2 4.3 4.2 100 0.0 1.4 215 4.0
10:00 - 10:30 4.2 4.3 4.1 100 0.0 1.4 227 4.0
10:30 - 11:00 4.3 4.5 4.2 100 0.0 2.2 236 4.7
11:00 - 11:30 4.5 4.6 4.4 100 0.0 2.2 250 6.5
11:30 - 12:00 4.6 4.6 4.5 100 0.0 2.2 238 5.8
12:00 - 12:30 4.8 5.0 4.5 99 0.0 1.1 258 4.3
12:30 - 13:00 5.0 5.0 4.9 96 0.0 2.2 234 6.1
13:00 - 13:30 4.9 5.0 4.9 97 0.0 1.8 233 5.8
13:30 - 14:00 5.0 5.0 4.9 96 0.0 1.8 260 5.4
14:00 - 14:30 5.0 5.1 4.9 96 0.0 1.1 271 5.8
14:30 - 15:00 5.0 5.1 5.0 95 0.0 1.1 300 5.0
15:00 - 15:30 5.0 5.0 5.0 93 0.0 1.4 307 6.5
15:30 - 16:00 5.1 5.2 5.0 92 0.0 0.0 290 2.5
16:00 - 16:30 5.1 5.2 5.1 89 0.0 1.1 340 5.0
16:30 - 17:00 5.0 5.1 5.0 90 0.0 0.4 185 2.9
17:00 - 17:30 4.8 4.9 4.7 93 0.0 0.0 163 1.1
17:30 - 18:00 4.4 4.7 4.1 95 0.0 0.0 100 1.8
18:00 - 18:30 3.9 4.1 3.8 100 0.0 0.0 100 1.4
18:30 - 19:00 3.9 4.2 3.8 99 0.0 0.7 22 2.2
19:00 - 19:30 3.5 3.9 3.0 100 0.0 0.7 6 2.2
19:30 - 20:00 2.6 3.1 1.8 100 0.0 0.7 348 2.2
20:00 - 20:30 2.1 2.4 1.8 100 0.0 0.0 33 1.1
20:30 - 21:00 1.7 2.1 1.4 100 0.0 0.0 151 2.2

Les dades en taronja només han passat un control de qualitat automàtic. Resta pendent la seva validació definitiva.